sensor_id;sensor_type;location;lat;lon;timestamp;temperature;humidity
2723;DHT22;1369;53.216;10.396;2024-03-07T00:00:09;3.00;99.90
2723;DHT22;1369;53.216;10.396;2024-03-07T00:02:47;3.00;99.90
2723;DHT22;1369;53.216;10.396;2024-03-07T00:05:19;3.10;99.90
2723;DHT22;1369;53.216;10.396;2024-03-07T00:07:46;3.20;99.90
2723;DHT22;1369;53.216;10.396;2024-03-07T00:10:13;3.30;99.90
2723;DHT22;1369;53.216;10.396;2024-03-07T00:12:40;3.30;99.90
2723;DHT22;1369;53.216;10.396;2024-03-07T00:15:11;3.50;99.90
2723;DHT22;1369;53.216;10.396;2024-03-07T00:17:38;3.50;99.90
2723;DHT22;1369;53.216;10.396;2024-03-07T00:20:05;3.40;99.90
2723;DHT22;1369;53.216;10.396;2024-03-07T00:22:37;3.30;99.90
2723;DHT22;1369;53.216;10.396;2024-03-07T00:25:03;3.40;99.90
2723;DHT22;1369;53.216;10.396;2024-03-07T00:27:31;3.50;99.90
2723;DHT22;1369;53.216;10.396;2024-03-07T00:29:58;3.60;99.90
2723;DHT22;1369;53.216;10.396;2024-03-07T00:32:23;3.60;99.90
2723;DHT22;1369;53.216;10.396;2024-03-07T00:34:49;3.70;99.90
2723;DHT22;1369;53.216;10.396;2024-03-07T00:37:16;3.70;99.90
2723;DHT22;1369;53.216;10.396;2024-03-07T00:39:42;3.70;99.90
2723;DHT22;1369;53.216;10.396;2024-03-07T00:42:08;3.80;99.90
2723;DHT22;1369;53.216;10.396;2024-03-07T00:44:34;3.80;99.90
2723;DHT22;1369;53.216;10.396;2024-03-07T00:47:00;3.90;99.90
2723;DHT22;1369;53.216;10.396;2024-03-07T00:49:27;4.00;99.90
2723;DHT22;1369;53.216;10.396;2024-03-07T00:51:54;4.00;99.90
2723;DHT22;1369;53.216;10.396;2024-03-07T00:54:20;4.00;99.90
2723;DHT22;1369;53.216;10.396;2024-03-07T00:56:45;4.00;99.90
2723;DHT22;1369;53.216;10.396;2024-03-07T00:59:15;4.00;99.90
2723;DHT22;1369;53.216;10.396;2024-03-07T01:01:41;4.00;99.90
2723;DHT22;1369;53.216;10.396;2024-03-07T01:04:07;4.10;99.90
2723;DHT22;1369;53.216;10.396;2024-03-07T01:06:34;4.10;99.90
2723;DHT22;1369;53.216;10.396;2024-03-07T01:08:59;4.20;99.90
2723;DHT22;1369;53.216;10.396;2024-03-07T01:11:25;4.20;99.90
2723;DHT22;1369;53.216;10.396;2024-03-07T01:13:51;4.20;99.90
2723;DHT22;1369;53.216;10.396;2024-03-07T01:16:17;4.20;99.90
2723;DHT22;1369;53.216;10.396;2024-03-07T01:18:43;4.20;99.90
2723;DHT22;1369;53.216;10.396;2024-03-07T01:21:08;4.20;99.90
2723;DHT22;1369;53.216;10.396;2024-03-07T01:23:35;4.20;99.90
2723;DHT22;1369;53.216;10.396;2024-03-07T01:26:01;4.20;99.90
2723;DHT22;1369;53.216;10.396;2024-03-07T01:28:28;4.20;99.90
2723;DHT22;1369;53.216;10.396;2024-03-07T01:30:56;4.20;99.90
2723;DHT22;1369;53.216;10.396;2024-03-07T01:33:23;4.20;99.90
2723;DHT22;1369;53.216;10.396;2024-03-07T01:35:49;4.20;99.90
2723;DHT22;1369;53.216;10.396;2024-03-07T01:38:15;4.20;99.90
2723;DHT22;1369;53.216;10.396;2024-03-07T01:40:42;4.20;99.90
2723;DHT22;1369;53.216;10.396;2024-03-07T01:43:08;4.20;99.90
2723;DHT22;1369;53.216;10.396;2024-03-07T01:45:34;4.30;99.90
2723;DHT22;1369;53.216;10.396;2024-03-07T01:48:05;4.30;99.90
2723;DHT22;1369;53.216;10.396;2024-03-07T01:50:32;4.30;99.90
2723;DHT22;1369;53.216;10.396;2024-03-07T01:52:59;4.30;99.90
2723;DHT22;1369;53.216;10.396;2024-03-07T01:55:25;4.30;99.90
2723;DHT22;1369;53.216;10.396;2024-03-07T01:57:52;4.30;99.90
2723;DHT22;1369;53.216;10.396;2024-03-07T02:00:17;4.30;99.90
2723;DHT22;1369;53.216;10.396;2024-03-07T02:02:45;4.30;99.90
2723;DHT22;1369;53.216;10.396;2024-03-07T02:05:11;4.20;99.90
2723;DHT22;1369;53.216;10.396;2024-03-07T02:07:37;4.20;99.90
2723;DHT22;1369;53.216;10.396;2024-03-07T02:10:04;4.30;99.90
2723;DHT22;1369;53.216;10.396;2024-03-07T02:12:31;4.20;99.90
2723;DHT22;1369;53.216;10.396;2024-03-07T02:14:57;4.30;99.90
2723;DHT22;1369;53.216;10.396;2024-03-07T02:17:26;4.40;99.90
2723;DHT22;1369;53.216;10.396;2024-03-07T02:19:52;4.40;99.90
2723;DHT22;1369;53.216;10.396;2024-03-07T02:22:19;4.40;99.90
2723;DHT22;1369;53.216;10.396;2024-03-07T02:24:45;4.40;99.90
2723;DHT22;1369;53.216;10.396;2024-03-07T02:27:12;4.50;99.90
2723;DHT22;1369;53.216;10.396;2024-03-07T02:29:40;4.50;99.90
2723;DHT22;1369;53.216;10.396;2024-03-07T02:32:06;4.50;99.90
2723;DHT22;1369;53.216;10.396;2024-03-07T02:34:32;4.50;99.90
2723;DHT22;1369;53.216;10.396;2024-03-07T02:36:58;4.60;99.90
2723;DHT22;1369;53.216;10.396;2024-03-07T02:39:23;4.60;99.90
2723;DHT22;1369;53.216;10.396;2024-03-07T02:41:52;4.60;99.90
2723;DHT22;1369;53.216;10.396;2024-03-07T02:44:18;4.60;99.90
2723;DHT22;1369;53.216;10.396;2024-03-07T02:46:44;4.60;99.90
2723;DHT22;1369;53.216;10.396;2024-03-07T02:49:09;4.60;99.90
2723;DHT22;1369;53.216;10.396;2024-03-07T02:51:35;4.60;99.90
2723;DHT22;1369;53.216;10.396;2024-03-07T02:54:01;4.60;99.90
2723;DHT22;1369;53.216;10.396;2024-03-07T02:56:31;4.60;99.90
2723;DHT22;1369;53.216;10.396;2024-03-07T02:58:56;4.60;99.90
2723;DHT22;1369;53.216;10.396;2024-03-07T03:01:22;4.60;99.90
2723;DHT22;1369;53.216;10.396;2024-03-07T03:03:48;4.70;99.90
2723;DHT22;1369;53.216;10.396;2024-03-07T03:06:13;4.70;99.90
2723;DHT22;1369;53.216;10.396;2024-03-07T03:08:39;4.60;99.90
2723;DHT22;1369;53.216;10.396;2024-03-07T03:11:04;4.60;99.90
2723;DHT22;1369;53.216;10.396;2024-03-07T03:13:30;4.60;99.90
2723;DHT22;1369;53.216;10.396;2024-03-07T03:15:56;4.70;99.90
2723;DHT22;1369;53.216;10.396;2024-03-07T03:18:25;4.70;99.90
2723;DHT22;1369;53.216;10.396;2024-03-07T03:20:51;4.80;99.90
2723;DHT22;1369;53.216;10.396;2024-03-07T03:23:18;4.80;99.90
2723;DHT22;1369;53.216;10.396;2024-03-07T03:25:44;4.80;99.90
2723;DHT22;1369;53.216;10.396;2024-03-07T03:28:11;4.80;99.90
2723;DHT22;1369;53.216;10.396;2024-03-07T03:30:41;4.80;99.90
2723;DHT22;1369;53.216;10.396;2024-03-07T03:33:06;4.80;99.90
2723;DHT22;1369;53.216;10.396;2024-03-07T03:35:39;4.80;99.90
2723;DHT22;1369;53.216;10.396;2024-03-07T03:38:05;4.90;99.90
2723;DHT22;1369;53.216;10.396;2024-03-07T03:40:32;4.90;99.90
2723;DHT22;1369;53.216;10.396;2024-03-07T03:42:58;5.00;99.90
2723;DHT22;1369;53.216;10.396;2024-03-07T03:45:24;5.00;99.90
2723;DHT22;1369;53.216;10.396;2024-03-07T03:47:51;5.00;99.90
2723;DHT22;1369;53.216;10.396;2024-03-07T03:50:17;4.90;99.90
2723;DHT22;1369;53.216;10.396;2024-03-07T03:52:43;4.90;99.90
2723;DHT22;1369;53.216;10.396;2024-03-07T03:55:10;4.90;99.90
2723;DHT22;1369;53.216;10.396;2024-03-07T03:57:41;4.90;99.90
2723;DHT22;1369;53.216;10.396;2024-03-07T04:00:08;4.90;99.90
2723;DHT22;1369;53.216;10.396;2024-03-07T04:02:46;4.90;99.90
2723;DHT22;1369;53.216;10.396;2024-03-07T04:05:16;4.90;99.90
2723;DHT22;1369;53.216;10.396;2024-03-07T04:07:42;4.90;99.90
2723;DHT22;1369;53.216;10.396;2024-03-07T04:10:09;4.90;99.90
2723;DHT22;1369;53.216;10.396;2024-03-07T04:12:40;4.90;99.90
2723;DHT22;1369;53.216;10.396;2024-03-07T04:15:11;5.00;99.90
2723;DHT22;1369;53.216;10.396;2024-03-07T04:17:37;4.90;99.90
2723;DHT22;1369;53.216;10.396;2024-03-07T04:20:04;4.90;99.90
2723;DHT22;1369;53.216;10.396;2024-03-07T04:22:35;4.80;99.90
2723;DHT22;1369;53.216;10.396;2024-03-07T04:25:05;4.70;99.90
2723;DHT22;1369;53.216;10.396;2024-03-07T04:27:32;4.80;99.90
2723;DHT22;1369;53.216;10.396;2024-03-07T04:29:59;4.80;99.90
2723;DHT22;1369;53.216;10.396;2024-03-07T04:32:28;4.80;99.90
2723;DHT22;1369;53.216;10.396;2024-03-07T04:34:54;4.80;99.90
2723;DHT22;1369;53.216;10.396;2024-03-07T04:37:22;4.80;99.90
2723;DHT22;1369;53.216;10.396;2024-03-07T04:39:48;4.90;99.90
2723;DHT22;1369;53.216;10.396;2024-03-07T04:42:14;4.80;99.90
2723;DHT22;1369;53.216;10.396;2024-03-07T04:44:39;4.90;99.90
2723;DHT22;1369;53.216;10.396;2024-03-07T04:47:06;4.90;99.90
2723;DHT22;1369;53.216;10.396;2024-03-07T04:49:32;4.90;99.90
2723;DHT22;1369;53.216;10.396;2024-03-07T04:52:00;4.80;99.90
2723;DHT22;1369;53.216;10.396;2024-03-07T04:54:28;4.70;99.90
2723;DHT22;1369;53.216;10.396;2024-03-07T04:56:54;4.70;99.90
2723;DHT22;1369;53.216;10.396;2024-03-07T04:59:21;4.80;99.90
2723;DHT22;1369;53.216;10.396;2024-03-07T05:01:48;4.80;99.90
2723;DHT22;1369;53.216;10.396;2024-03-07T05:04:14;4.80;99.90
2723;DHT22;1369;53.216;10.396;2024-03-07T05:06:40;4.80;99.90
2723;DHT22;1369;53.216;10.396;2024-03-07T05:11:34;4.60;99.90
2723;DHT22;1369;53.216;10.396;2024-03-07T05:14:00;4.60;99.90
2723;DHT22;1369;53.216;10.396;2024-03-07T05:16:31;4.60;99.90
2723;DHT22;1369;53.216;10.396;2024-03-07T05:18:59;4.40;99.90
2723;DHT22;1369;53.216;10.396;2024-03-07T05:21:27;4.20;99.90
2723;DHT22;1369;53.216;10.396;2024-03-07T05:24:13;4.10;99.90
2723;DHT22;1369;53.216;10.396;2024-03-07T05:26:40;4.10;99.90
2723;DHT22;1369;53.216;10.396;2024-03-07T05:29:07;4.00;99.90
2723;DHT22;1369;53.216;10.396;2024-03-07T05:31:39;4.10;99.90
2723;DHT22;1369;53.216;10.396;2024-03-07T05:34:09;4.10;99.90
2723;DHT22;1369;53.216;10.396;2024-03-07T05:36:35;4.20;99.90
2723;DHT22;1369;53.216;10.396;2024-03-07T05:39:01;4.20;99.90
2723;DHT22;1369;53.216;10.396;2024-03-07T05:41:34;4.20;99.90
2723;DHT22;1369;53.216;10.396;2024-03-07T05:44:00;4.20;99.90
2723;DHT22;1369;53.216;10.396;2024-03-07T05:46:25;4.10;99.90
2723;DHT22;1369;53.216;10.396;2024-03-07T05:48:51;4.10;99.90
2723;DHT22;1369;53.216;10.396;2024-03-07T05:51:22;4.20;99.90
2723;DHT22;1369;53.216;10.396;2024-03-07T05:53:47;4.30;99.90
2723;DHT22;1369;53.216;10.396;2024-03-07T05:56:13;4.30;99.90
2723;DHT22;1369;53.216;10.396;2024-03-07T05:58:39;4.30;99.90
2723;DHT22;1369;53.216;10.396;2024-03-07T06:01:05;4.30;99.90
2723;DHT22;1369;53.216;10.396;2024-03-07T06:03:30;4.20;99.90
2723;DHT22;1369;53.216;10.396;2024-03-07T06:05:58;4.20;99.90
2723;DHT22;1369;53.216;10.396;2024-03-07T06:08:24;4.30;99.90
2723;DHT22;1369;53.216;10.396;2024-03-07T06:10:50;4.20;99.90
2723;DHT22;1369;53.216;10.396;2024-03-07T06:13:16;4.20;99.90
2723;DHT22;1369;53.216;10.396;2024-03-07T06:15:46;4.20;99.90
2723;DHT22;1369;53.216;10.396;2024-03-07T06:18:12;4.10;99.90
2723;DHT22;1369;53.216;10.396;2024-03-07T06:20:40;4.10;99.90
2723;DHT22;1369;53.216;10.396;2024-03-07T06:23:06;4.10;99.90
2723;DHT22;1369;53.216;10.396;2024-03-07T06:25:33;4.00;99.90
2723;DHT22;1369;53.216;10.396;2024-03-07T06:28:17;4.00;99.90
2723;DHT22;1369;53.216;10.396;2024-03-07T06:30:46;4.00;99.90
2723;DHT22;1369;53.216;10.396;2024-03-07T06:33:13;4.00;99.90
2723;DHT22;1369;53.216;10.396;2024-03-07T06:35:39;4.00;99.90
2723;DHT22;1369;53.216;10.396;2024-03-07T06:38:07;4.00;99.90
2723;DHT22;1369;53.216;10.396;2024-03-07T06:40:34;4.00;99.90
2723;DHT22;1369;53.216;10.396;2024-03-07T06:43:00;4.10;99.90
2723;DHT22;1369;53.216;10.396;2024-03-07T06:45:26;4.00;99.90
2723;DHT22;1369;53.216;10.396;2024-03-07T06:47:52;4.00;99.90
2723;DHT22;1369;53.216;10.396;2024-03-07T06:50:18;4.00;99.90
2723;DHT22;1369;53.216;10.396;2024-03-07T06:52:46;4.00;99.90
2723;DHT22;1369;53.216;10.396;2024-03-07T06:55:16;4.10;99.90
2723;DHT22;1369;53.216;10.396;2024-03-07T06:57:43;4.10;99.90
2723;DHT22;1369;53.216;10.396;2024-03-07T07:00:10;4.10;99.90
2723;DHT22;1369;53.216;10.396;2024-03-07T07:02:42;4.20;99.90
2723;DHT22;1369;53.216;10.396;2024-03-07T07:05:08;4.20;99.90
2723;DHT22;1369;53.216;10.396;2024-03-07T07:07:41;4.20;99.90
2723;DHT22;1369;53.216;10.396;2024-03-07T07:10:10;4.20;99.90
2723;DHT22;1369;53.216;10.396;2024-03-07T07:12:45;3.90;99.90
2723;DHT22;1369;53.216;10.396;2024-03-07T07:15:13;3.80;99.90
2723;DHT22;1369;53.216;10.396;2024-03-07T07:17:43;3.90;99.90
2723;DHT22;1369;53.216;10.396;2024-03-07T07:20:12;4.00;99.90
2723;DHT22;1369;53.216;10.396;2024-03-07T07:22:41;4.00;99.90
2723;DHT22;1369;53.216;10.396;2024-03-07T07:25:07;4.00;99.90
2723;DHT22;1369;53.216;10.396;2024-03-07T07:27:40;4.00;99.90
2723;DHT22;1369;53.216;10.396;2024-03-07T07:30:07;4.00;99.90
2723;DHT22;1369;53.216;10.396;2024-03-07T07:32:33;4.10;99.90
2723;DHT22;1369;53.216;10.396;2024-03-07T07:34:59;4.10;99.90
2723;DHT22;1369;53.216;10.396;2024-03-07T07:37:24;4.10;99.90
2723;DHT22;1369;53.216;10.396;2024-03-07T07:39:50;4.00;99.90
2723;DHT22;1369;53.216;10.396;2024-03-07T07:42:16;3.90;99.90
2723;DHT22;1369;53.216;10.396;2024-03-07T07:44:42;3.90;99.90
2723;DHT22;1369;53.216;10.396;2024-03-07T07:47:09;3.90;99.90
2723;DHT22;1369;53.216;10.396;2024-03-07T07:49:37;4.00;99.90
2723;DHT22;1369;53.216;10.396;2024-03-07T07:52:04;4.10;99.90
2723;DHT22;1369;53.216;10.396;2024-03-07T07:54:30;4.20;99.90
2723;DHT22;1369;53.216;10.396;2024-03-07T07:56:56;4.00;99.90
2723;DHT22;1369;53.216;10.396;2024-03-07T07:59:22;4.00;99.90
2723;DHT22;1369;53.216;10.396;2024-03-07T08:01:48;4.10;99.90
2723;DHT22;1369;53.216;10.396;2024-03-07T08:04:14;4.20;99.90
2723;DHT22;1369;53.216;10.396;2024-03-07T08:06:40;4.30;99.90
2723;DHT22;1369;53.216;10.396;2024-03-07T08:09:06;4.20;99.90
2723;DHT22;1369;53.216;10.396;2024-03-07T08:11:35;4.20;99.90
2723;DHT22;1369;53.216;10.396;2024-03-07T08:14:02;4.10;99.90
2723;DHT22;1369;53.216;10.396;2024-03-07T08:16:28;4.10;99.90
2723;DHT22;1369;53.216;10.396;2024-03-07T08:18:53;4.00;99.90
2723;DHT22;1369;53.216;10.396;2024-03-07T08:21:21;4.00;99.90
2723;DHT22;1369;53.216;10.396;2024-03-07T08:23:48;4.10;99.90
2723;DHT22;1369;53.216;10.396;2024-03-07T08:26:14;4.20;99.90
2723;DHT22;1369;53.216;10.396;2024-03-07T08:28:41;4.20;99.90
2723;DHT22;1369;53.216;10.396;2024-03-07T08:31:06;4.20;99.90
2723;DHT22;1369;53.216;10.396;2024-03-07T08:33:32;4.30;99.90
2723;DHT22;1369;53.216;10.396;2024-03-07T08:35:59;4.30;99.90
2723;DHT22;1369;53.216;10.396;2024-03-07T08:38:24;4.30;99.90
2723;DHT22;1369;53.216;10.396;2024-03-07T08:40:50;4.50;99.90
2723;DHT22;1369;53.216;10.396;2024-03-07T08:43:16;4.50;99.90
2723;DHT22;1369;53.216;10.396;2024-03-07T08:45:41;4.60;99.90
2723;DHT22;1369;53.216;10.396;2024-03-07T08:48:07;4.80;99.90
2723;DHT22;1369;53.216;10.396;2024-03-07T08:50:34;4.80;99.90
2723;DHT22;1369;53.216;10.396;2024-03-07T08:53:00;5.00;99.90
2723;DHT22;1369;53.216;10.396;2024-03-07T08:55:26;4.70;99.90
2723;DHT22;1369;53.216;10.396;2024-03-07T08:57:52;4.80;99.90
2723;DHT22;1369;53.216;10.396;2024-03-07T09:00:18;4.80;99.90
2723;DHT22;1369;53.216;10.396;2024-03-07T09:02:48;4.90;99.90
2723;DHT22;1369;53.216;10.396;2024-03-07T09:05:21;4.60;99.90
2723;DHT22;1369;53.216;10.396;2024-03-07T09:07:51;4.60;99.90
2723;DHT22;1369;53.216;10.396;2024-03-07T09:10:17;4.70;99.90
2723;DHT22;1369;53.216;10.396;2024-03-07T09:12:50;4.70;99.90
2723;DHT22;1369;53.216;10.396;2024-03-07T09:15:17;4.70;99.90
2723;DHT22;1369;53.216;10.396;2024-03-07T09:17:43;4.70;99.90
2723;DHT22;1369;53.216;10.396;2024-03-07T09:20:10;4.80;99.90
2723;DHT22;1369;53.216;10.396;2024-03-07T09:22:46;4.90;99.90
2723;DHT22;1369;53.216;10.396;2024-03-07T09:25:19;4.80;99.90
2723;DHT22;1369;53.216;10.396;2024-03-07T09:27:45;4.80;99.90
2723;DHT22;1369;53.216;10.396;2024-03-07T09:30:11;4.80;99.90
2723;DHT22;1369;53.216;10.396;2024-03-07T09:32:40;4.80;99.90
2723;DHT22;1369;53.216;10.396;2024-03-07T09:35:08;5.00;99.90
2723;DHT22;1369;53.216;10.396;2024-03-07T09:37:38;5.00;99.90
2723;DHT22;1369;53.216;10.396;2024-03-07T09:40:05;5.10;99.90
2723;DHT22;1369;53.216;10.396;2024-03-07T09:42:32;4.90;99.90
2723;DHT22;1369;53.216;10.396;2024-03-07T09:45:01;5.00;99.90
2723;DHT22;1369;53.216;10.396;2024-03-07T09:47:29;5.20;99.90
2723;DHT22;1369;53.216;10.396;2024-03-07T09:49:56;5.50;99.90
2723;DHT22;1369;53.216;10.396;2024-03-07T09:52:22;5.60;99.90
2723;DHT22;1369;53.216;10.396;2024-03-07T09:54:47;5.80;99.90
2723;DHT22;1369;53.216;10.396;2024-03-07T09:57:14;5.70;99.90
2723;DHT22;1369;53.216;10.396;2024-03-07T09:59:42;5.90;99.90
2723;DHT22;1369;53.216;10.396;2024-03-07T10:02:08;6.00;99.90
2723;DHT22;1369;53.216;10.396;2024-03-07T10:04:43;6.00;99.90
2723;DHT22;1369;53.216;10.396;2024-03-07T10:07:14;5.70;99.90
2723;DHT22;1369;53.216;10.396;2024-03-07T10:09:40;5.60;99.90
2723;DHT22;1369;53.216;10.396;2024-03-07T10:12:07;5.50;99.90
2723;DHT22;1369;53.216;10.396;2024-03-07T10:14:56;5.30;99.90
2723;DHT22;1369;53.216;10.396;2024-03-07T10:17:24;5.50;99.90
2723;DHT22;1369;53.216;10.396;2024-03-07T10:19:53;5.60;99.90
2723;DHT22;1369;53.216;10.396;2024-03-07T10:22:20;5.80;99.90
2723;DHT22;1369;53.216;10.396;2024-03-07T10:24:52;6.00;99.90
2723;DHT22;1369;53.216;10.396;2024-03-07T10:27:19;6.00;99.90
2723;DHT22;1369;53.216;10.396;2024-03-07T10:29:47;6.00;99.90
2723;DHT22;1369;53.216;10.396;2024-03-07T10:32:13;6.00;99.90
2723;DHT22;1369;53.216;10.396;2024-03-07T10:34:39;6.20;99.90
2723;DHT22;1369;53.216;10.396;2024-03-07T10:37:05;6.10;99.90
2723;DHT22;1369;53.216;10.396;2024-03-07T10:39:30;6.20;99.90
2723;DHT22;1369;53.216;10.396;2024-03-07T10:42:00;5.80;99.90
2723;DHT22;1369;53.216;10.396;2024-03-07T10:44:31;5.90;99.90
2723;DHT22;1369;53.216;10.396;2024-03-07T10:46:58;5.90;99.90
2723;DHT22;1369;53.216;10.396;2024-03-07T10:49:33;6.00;99.90
2723;DHT22;1369;53.216;10.396;2024-03-07T10:52:10;6.20;99.90
2723;DHT22;1369;53.216;10.396;2024-03-07T10:54:48;6.20;99.90
2723;DHT22;1369;53.216;10.396;2024-03-07T10:59:50;6.20;99.90
2723;DHT22;1369;53.216;10.396;2024-03-07T11:02:43;6.30;99.90
2723;DHT22;1369;53.216;10.396;2024-03-07T11:05:11;6.40;99.90
2723;DHT22;1369;53.216;10.396;2024-03-07T11:07:38;6.40;99.90
2723;DHT22;1369;53.216;10.396;2024-03-07T11:10:05;6.20;99.90
2723;DHT22;1369;53.216;10.396;2024-03-07T11:12:38;6.40;99.90
2723;DHT22;1369;53.216;10.396;2024-03-07T11:15:08;6.40;99.90
2723;DHT22;1369;53.216;10.396;2024-03-07T11:17:41;6.60;99.90
2723;DHT22;1369;53.216;10.396;2024-03-07T11:20:24;6.60;99.90
2723;DHT22;1369;53.216;10.396;2024-03-07T11:22:50;6.60;99.90
2723;DHT22;1369;53.216;10.396;2024-03-07T11:25:20;6.60;99.90
2723;DHT22;1369;53.216;10.396;2024-03-07T11:27:57;6.60;99.90
2723;DHT22;1369;53.216;10.396;2024-03-07T11:30:23;6.70;99.90
2723;DHT22;1369;53.216;10.396;2024-03-07T11:32:53;6.70;99.90
2723;DHT22;1369;53.216;10.396;2024-03-07T11:35:20;6.80;99.90
2723;DHT22;1369;53.216;10.396;2024-03-07T11:37:58;6.60;99.90
2723;DHT22;1369;53.216;10.396;2024-03-07T11:42:54;6.70;99.90
2723;DHT22;1369;53.216;10.396;2024-03-07T11:45:22;6.50;99.90
2723;DHT22;1369;53.216;10.396;2024-03-07T11:47:57;6.70;99.90
2723;DHT22;1369;53.216;10.396;2024-03-07T11:50:28;6.90;99.90
2723;DHT22;1369;53.216;10.396;2024-03-07T11:52:55;7.00;99.90
2723;DHT22;1369;53.216;10.396;2024-03-07T11:55:22;7.20;99.90
2723;DHT22;1369;53.216;10.396;2024-03-07T11:57:48;7.30;99.90
2723;DHT22;1369;53.216;10.396;2024-03-07T12:00:14;7.40;99.90
2723;DHT22;1369;53.216;10.396;2024-03-07T12:02:41;7.10;99.90
2723;DHT22;1369;53.216;10.396;2024-03-07T12:05:09;7.00;99.90
2723;DHT22;1369;53.216;10.396;2024-03-07T12:07:34;7.10;99.90
2723;DHT22;1369;53.216;10.396;2024-03-07T12:10:03;7.10;99.90
2723;DHT22;1369;53.216;10.396;2024-03-07T12:12:30;7.20;99.90
2723;DHT22;1369;53.216;10.396;2024-03-07T12:14:56;7.30;99.90
2723;DHT22;1369;53.216;10.396;2024-03-07T12:17:22;7.20;99.90
2723;DHT22;1369;53.216;10.396;2024-03-07T12:19:48;7.30;99.90
2723;DHT22;1369;53.216;10.396;2024-03-07T12:22:21;7.40;99.90
2723;DHT22;1369;53.216;10.396;2024-03-07T12:25:02;7.40;99.90
2723;DHT22;1369;53.216;10.396;2024-03-07T12:27:28;7.50;99.90
2723;DHT22;1369;53.216;10.396;2024-03-07T12:29:54;7.30;99.90
2723;DHT22;1369;53.216;10.396;2024-03-07T12:32:20;7.50;99.90
2723;DHT22;1369;53.216;10.396;2024-03-07T12:34:46;7.70;99.90
2723;DHT22;1369;53.216;10.396;2024-03-07T12:37:13;7.40;99.90
2723;DHT22;1369;53.216;10.396;2024-03-07T12:39:43;7.50;99.90
2723;DHT22;1369;53.216;10.396;2024-03-07T12:42:12;7.60;99.90
2723;DHT22;1369;53.216;10.396;2024-03-07T12:44:42;7.70;99.90
2723;DHT22;1369;53.216;10.396;2024-03-07T12:47:11;7.80;99.90
2723;DHT22;1369;53.216;10.396;2024-03-07T12:49:37;7.80;99.90
2723;DHT22;1369;53.216;10.396;2024-03-07T12:52:03;7.90;99.90
2723;DHT22;1369;53.216;10.396;2024-03-07T12:54:29;7.90;99.90
2723;DHT22;1369;53.216;10.396;2024-03-07T12:56:54;7.80;99.90
2723;DHT22;1369;53.216;10.396;2024-03-07T12:59:21;7.90;99.90
2723;DHT22;1369;53.216;10.396;2024-03-07T13:01:49;7.80;99.90
2723;DHT22;1369;53.216;10.396;2024-03-07T13:04:15;8.00;99.90
2723;DHT22;1369;53.216;10.396;2024-03-07T13:06:41;8.00;99.90
2723;DHT22;1369;53.216;10.396;2024-03-07T13:09:12;8.10;99.90
2723;DHT22;1369;53.216;10.396;2024-03-07T13:11:39;8.20;99.90
2723;DHT22;1369;53.216;10.396;2024-03-07T13:14:12;8.40;99.90
2723;DHT22;1369;53.216;10.396;2024-03-07T13:16:37;8.80;99.90
2723;DHT22;1369;53.216;10.396;2024-03-07T13:19:03;8.90;99.90
2723;DHT22;1369;53.216;10.396;2024-03-07T13:21:31;8.90;99.90
2723;DHT22;1369;53.216;10.396;2024-03-07T13:23:57;8.60;99.90
2723;DHT22;1369;53.216;10.396;2024-03-07T13:26:23;8.20;99.90
2723;DHT22;1369;53.216;10.396;2024-03-07T13:28:51;8.20;99.90
2723;DHT22;1369;53.216;10.396;2024-03-07T13:31:19;7.90;99.90
2723;DHT22;1369;53.216;10.396;2024-03-07T13:33:44;7.80;99.90
2723;DHT22;1369;53.216;10.396;2024-03-07T13:36:10;7.60;99.90
2723;DHT22;1369;53.216;10.396;2024-03-07T13:38:36;7.20;99.90
2723;DHT22;1369;53.216;10.396;2024-03-07T13:41:02;7.10;99.90
2723;DHT22;1369;53.216;10.396;2024-03-07T13:43:30;7.30;99.90
2723;DHT22;1369;53.216;10.396;2024-03-07T13:45:59;7.50;99.90
2723;DHT22;1369;53.216;10.396;2024-03-07T13:48:25;7.60;99.90
2723;DHT22;1369;53.216;10.396;2024-03-07T13:50:51;7.80;99.90
2723;DHT22;1369;53.216;10.396;2024-03-07T13:53:20;7.80;99.90
2723;DHT22;1369;53.216;10.396;2024-03-07T14:30:28;7.00;99.90
2723;DHT22;1369;53.216;10.396;2024-03-07T14:32:25;7.10;99.90
2723;DHT22;1369;53.216;10.396;2024-03-07T14:35:12;7.30;99.90
2723;DHT22;1369;53.216;10.396;2024-03-07T14:38:02;7.40;99.90
2723;DHT22;1369;53.216;10.396;2024-03-07T14:40:31;7.40;99.90
2723;DHT22;1369;53.216;10.396;2024-03-07T14:42:59;7.60;99.90
2723;DHT22;1369;53.216;10.396;2024-03-07T14:45:33;7.70;99.90
2723;DHT22;1369;53.216;10.396;2024-03-07T14:48:00;7.80;99.90
2723;DHT22;1369;53.216;10.396;2024-03-07T14:50:29;7.90;99.90
2723;DHT22;1369;53.216;10.396;2024-03-07T14:52:55;8.20;99.90
2723;DHT22;1369;53.216;10.396;2024-03-07T14:55:21;8.20;99.90
2723;DHT22;1369;53.216;10.396;2024-03-07T14:57:47;8.20;99.90
2723;DHT22;1369;53.216;10.396;2024-03-07T15:00:13;8.30;99.90
2723;DHT22;1369;53.216;10.396;2024-03-07T15:02:51;8.40;99.90
2723;DHT22;1369;53.216;10.396;2024-03-07T15:05:17;8.40;99.90
2723;DHT22;1369;53.216;10.396;2024-03-07T15:07:45;8.30;99.90
2723;DHT22;1369;53.216;10.396;2024-03-07T15:10:19;8.40;99.90
2723;DHT22;1369;53.216;10.396;2024-03-07T15:12:47;8.30;99.90
2723;DHT22;1369;53.216;10.396;2024-03-07T15:15:16;8.40;99.90
2723;DHT22;1369;53.216;10.396;2024-03-07T15:17:48;8.20;99.90
2723;DHT22;1369;53.216;10.396;2024-03-07T15:20:14;8.20;99.90
2723;DHT22;1369;53.216;10.396;2024-03-07T15:22:54;8.30;99.90
2723;DHT22;1369;53.216;10.396;2024-03-07T15:25:21;8.30;99.90
2723;DHT22;1369;53.216;10.396;2024-03-07T15:27:48;8.20;99.90
2723;DHT22;1369;53.216;10.396;2024-03-07T15:30:16;8.20;99.90
2723;DHT22;1369;53.216;10.396;2024-03-07T15:32:42;8.00;99.90
2723;DHT22;1369;53.216;10.396;2024-03-07T15:35:11;7.90;99.90
2723;DHT22;1369;53.216;10.396;2024-03-07T15:37:39;7.70;99.90
2723;DHT22;1369;53.216;10.396;2024-03-07T15:40:09;7.70;99.90
2723;DHT22;1369;53.216;10.396;2024-03-07T15:42:42;7.70;99.90
2723;DHT22;1369;53.216;10.396;2024-03-07T15:45:15;7.60;99.90
2723;DHT22;1369;53.216;10.396;2024-03-07T15:47:45;7.60;99.90
2723;DHT22;1369;53.216;10.396;2024-03-07T15:50:11;7.70;99.90
2723;DHT22;1369;53.216;10.396;2024-03-07T15:52:40;7.80;99.90
2723;DHT22;1369;53.216;10.396;2024-03-07T15:55:08;7.80;99.90
2723;DHT22;1369;53.216;10.396;2024-03-07T15:57:42;7.80;99.90
2723;DHT22;1369;53.216;10.396;2024-03-07T16:00:08;7.80;99.90
2723;DHT22;1369;53.216;10.396;2024-03-07T16:02:58;7.80;99.90
2723;DHT22;1369;53.216;10.396;2024-03-07T16:05:28;7.70;99.90
2723;DHT22;1369;53.216;10.396;2024-03-07T16:07:54;7.70;99.90
2723;DHT22;1369;53.216;10.396;2024-03-07T16:10:25;7.70;99.90
2723;DHT22;1369;53.216;10.396;2024-03-07T16:12:52;7.70;99.90
2723;DHT22;1369;53.216;10.396;2024-03-07T16:15:19;7.50;99.90
2723;DHT22;1369;53.216;10.396;2024-03-07T16:17:52;7.50;99.90
2723;DHT22;1369;53.216;10.396;2024-03-07T16:20:20;7.50;99.90
2723;DHT22;1369;53.216;10.396;2024-03-07T16:22:45;7.40;99.90
2723;DHT22;1369;53.216;10.396;2024-03-07T16:25:15;7.40;99.90
2723;DHT22;1369;53.216;10.396;2024-03-07T16:27:42;7.20;99.90
2723;DHT22;1369;53.216;10.396;2024-03-07T16:30:11;7.10;99.90
2723;DHT22;1369;53.216;10.396;2024-03-07T16:32:39;7.10;99.90
2723;DHT22;1369;53.216;10.396;2024-03-07T16:35:05;7.00;99.90
2723;DHT22;1369;53.216;10.396;2024-03-07T16:37:44;6.90;99.90
2723;DHT22;1369;53.216;10.396;2024-03-07T16:40:12;6.80;99.90
2723;DHT22;1369;53.216;10.396;2024-03-07T16:42:39;6.80;99.90
2723;DHT22;1369;53.216;10.396;2024-03-07T16:45:09;6.70;99.90
2723;DHT22;1369;53.216;10.396;2024-03-07T16:47:42;6.60;99.90